sensor_id;sensor_type;location;lat;lon;timestamp;pressure;altitude;pressure_sealevel;temperature;humidity
47082;BME280;33066;49.296;14.470;2023-01-05T00:00:29;96928.22;;;13.05;41.34
47082;BME280;33066;49.296;14.470;2023-01-05T00:02:54;96924.22;;;13.03;41.31
47082;BME280;33066;49.296;14.470;2023-01-05T00:05:20;96925.76;;;13.49;41.37
47082;BME280;33066;49.296;14.470;2023-01-05T00:07:45;96923.79;;;13.10;41.52
47082;BME280;33066;49.296;14.470;2023-01-05T00:10:10;96921.61;;;12.99;41.74
47082;BME280;33066;49.296;14.470;2023-01-05T00:12:35;96919.24;;;13.25;41.71
47082;BME280;33066;49.296;14.470;2023-01-05T00:15:01;96941.89;;;12.74;42.16
47082;BME280;33066;49.296;14.470;2023-01-05T00:17:26;96927.74;;;12.75;42.21
47082;BME280;33066;49.296;14.470;2023-01-05T00:19:51;96912.33;;;12.86;42.10
47082;BME280;33066;49.296;14.470;2023-01-05T00:22:20;96896.60;;;12.92;42.29
47082;BME280;33066;49.296;14.470;2023-01-05T00:24:43;96912.50;;;12.90;42.40
47082;BME280;33066;49.296;14.470;2023-01-05T00:27:08;96914.90;;;12.38;42.48
47082;BME280;33066;49.296;14.470;2023-01-05T00:29:33;96919.78;;;12.68;42.84
47082;BME280;33066;49.296;14.470;2023-01-05T00:31:59;96918.53;;;12.81;42.68
47082;BME280;33066;49.296;14.470;2023-01-05T00:34:24;96913.76;;;12.53;42.50
47082;BME280;33066;49.296;14.470;2023-01-05T00:36:49;96908.28;;;12.87;42.35
47082;BME280;33066;49.296;14.470;2023-01-05T00:39:15;96907.87;;;12.63;42.76
47082;BME280;33066;49.296;14.470;2023-01-05T00:41:40;96896.91;;;13.01;42.57
47082;BME280;33066;49.296;14.470;2023-01-05T00:44:05;96909.03;;;12.85;42.46
47082;BME280;33066;49.296;14.470;2023-01-05T00:46:31;96880.57;;;12.76;42.23
47082;BME280;33066;49.296;14.470;2023-01-05T00:48:56;96892.58;;;12.86;42.19
47082;BME280;33066;49.296;14.470;2023-01-05T00:51:21;96889.37;;;12.95;42.12
47082;BME280;33066;49.296;14.470;2023-01-05T00:53:47;96907.62;;;13.02;42.40
47082;BME280;33066;49.296;14.470;2023-01-05T00:56:12;96903.68;;;12.84;43.39
47082;BME280;33066;49.296;14.470;2023-01-05T00:58:37;96897.36;;;13.01;43.08
47082;BME280;33066;49.296;14.470;2023-01-05T01:01:08;96887.98;;;12.74;42.75
47082;BME280;33066;49.296;14.470;2023-01-05T01:03:28;96891.48;;;13.11;42.44
47082;BME280;33066;49.296;14.470;2023-01-05T01:05:56;96894.14;;;13.22;42.29
47082;BME280;33066;49.296;14.470;2023-01-05T01:08:18;96887.61;;;12.88;42.10
47082;BME280;33066;49.296;14.470;2023-01-05T01:10:44;96884.68;;;12.74;42.52
47082;BME280;33066;49.296;14.470;2023-01-05T01:13:09;96885.83;;;13.08;42.24
47082;BME280;33066;49.296;14.470;2023-01-05T01:15:35;96888.34;;;13.29;42.11
47082;BME280;33066;49.296;14.470;2023-01-05T01:18:00;96901.96;;;13.36;42.20
47082;BME280;33066;49.296;14.470;2023-01-05T01:20:25;96902.86;;;13.15;42.42
47082;BME280;33066;49.296;14.470;2023-01-05T01:22:50;96893.96;;;13.58;42.88
47082;BME280;33066;49.296;14.470;2023-01-05T01:25:16;96874.37;;;12.81;42.87
47082;BME280;33066;49.296;14.470;2023-01-05T01:27:41;96864.76;;;13.01;42.70
47082;BME280;33066;49.296;14.470;2023-01-05T01:30:08;96880.03;;;13.25;42.66
47082;BME280;33066;49.296;14.470;2023-01-05T01:32:32;96867.84;;;13.06;42.45
47082;BME280;33066;49.296;14.470;2023-01-05T01:34:57;96874.75;;;13.02;42.25
47082;BME280;33066;49.296;14.470;2023-01-05T01:37:22;96874.66;;;12.90;42.04
47082;BME280;33066;49.296;14.470;2023-01-05T01:39:48;96880.19;;;12.65;41.88
47082;BME280;33066;49.296;14.470;2023-01-05T01:42:15;96863.79;;;12.95;41.77
47082;BME280;33066;49.296;14.470;2023-01-05T01:44:50;96853.09;;;13.16;41.50
47082;BME280;33066;49.296;14.470;2023-01-05T01:47:04;96852.36;;;13.31;41.00
47082;BME280;33066;49.296;14.470;2023-01-05T01:49:29;96855.68;;;13.20;41.11
47082;BME280;33066;49.296;14.470;2023-01-05T01:51:54;96851.45;;;13.12;40.87
47082;BME280;33066;49.296;14.470;2023-01-05T01:54:20;96847.16;;;13.47;40.74
47082;BME280;33066;49.296;14.470;2023-01-05T01:56:52;96850.56;;;13.35;40.62
47082;BME280;33066;49.296;14.470;2023-01-05T01:59:11;96855.64;;;13.47;40.45
47082;BME280;33066;49.296;14.470;2023-01-05T02:01:35;96847.46;;;13.15;40.64
47082;BME280;33066;49.296;14.470;2023-01-05T02:04:01;96845.50;;;13.23;40.45
47082;BME280;33066;49.296;14.470;2023-01-05T02:06:26;96843.13;;;13.29;40.38
47082;BME280;33066;49.296;14.470;2023-01-05T02:08:52;96846.37;;;13.28;40.41
47082;BME280;33066;49.296;14.470;2023-01-05T02:11:31;96836.29;;;13.37;40.21
47082;BME280;33066;49.296;14.470;2023-01-05T02:13:53;96832.20;;;13.25;40.38
47082;BME280;33066;49.296;14.470;2023-01-05T02:16:14;96828.26;;;13.18;40.30
47082;BME280;33066;49.296;14.470;2023-01-05T02:18:43;96811.85;;;13.51;40.20
47082;BME280;33066;49.296;14.470;2023-01-05T02:21:05;96811.91;;;13.49;40.19
47082;BME280;33066;49.296;14.470;2023-01-05T02:26:04;96800.63;;;13.33;40.21
47082;BME280;33066;49.296;14.470;2023-01-05T02:28:26;96802.49;;;13.40;40.05
47082;BME280;33066;49.296;14.470;2023-01-05T02:30:48;96806.76;;;13.69;40.10
47082;BME280;33066;49.296;14.470;2023-01-05T02:33:11;96814.38;;;13.46;39.97
47082;BME280;33066;49.296;14.470;2023-01-05T02:35:37;96803.33;;;13.27;40.17
47082;BME280;33066;49.296;14.470;2023-01-05T02:38:00;96796.37;;;13.51;40.19
47082;BME280;33066;49.296;14.470;2023-01-05T02:40:23;96800.16;;;13.31;40.09
47082;BME280;33066;49.296;14.470;2023-01-05T02:42:47;96799.99;;;13.69;39.97
47082;BME280;33066;49.296;14.470;2023-01-05T02:45:14;96803.58;;;13.52;39.77
47082;BME280;33066;49.296;14.470;2023-01-05T02:47:38;96798.83;;;13.82;39.67
47082;BME280;33066;49.296;14.470;2023-01-05T02:50:05;96801.29;;;13.70;39.77
47082;BME280;33066;49.296;14.470;2023-01-05T02:52:32;96795.30;;;13.40;39.91
47082;BME280;33066;49.296;14.470;2023-01-05T02:54:55;96799.99;;;13.46;39.86
47082;BME280;33066;49.296;14.470;2023-01-05T02:57:23;96804.52;;;13.75;39.78
47082;BME280;33066;49.296;14.470;2023-01-05T02:59:46;96805.68;;;13.41;39.87
47082;BME280;33066;49.296;14.470;2023-01-05T03:02:11;96798.69;;;13.82;39.81
47082;BME280;33066;49.296;14.470;2023-01-05T03:04:35;96794.93;;;13.68;39.99
47082;BME280;33066;49.296;14.470;2023-01-05T03:07:01;96800.15;;;13.75;39.99
47082;BME280;33066;49.296;14.470;2023-01-05T03:09:27;96797.42;;;13.80;40.01
47082;BME280;33066;49.296;14.470;2023-01-05T03:11:54;96799.94;;;13.59;40.07
47082;BME280;33066;49.296;14.470;2023-01-05T03:14:19;96799.12;;;13.82;40.26
47082;BME280;33066;49.296;14.470;2023-01-05T03:16:40;96797.68;;;13.70;40.47
47082;BME280;33066;49.296;14.470;2023-01-05T03:19:09;96793.91;;;13.74;40.51
47082;BME280;33066;49.296;14.470;2023-01-05T03:21:31;96795.81;;;13.83;40.41
47082;BME280;33066;49.296;14.470;2023-01-05T03:23:56;96790.77;;;13.86;40.42
47082;BME280;33066;49.296;14.470;2023-01-05T03:26:21;96781.55;;;13.25;40.58
47082;BME280;33066;49.296;14.470;2023-01-05T03:28:50;96788.04;;;13.74;40.55
47082;BME280;33066;49.296;14.470;2023-01-05T03:31:16;96787.06;;;13.87;40.54
47082;BME280;33066;49.296;14.470;2023-01-05T03:33:43;96787.36;;;13.96;40.45
47082;BME280;33066;49.296;14.470;2023-01-05T03:36:04;96785.43;;;13.57;40.46
47082;BME280;33066;49.296;14.470;2023-01-05T03:38:30;96780.76;;;13.90;40.46
47082;BME280;33066;49.296;14.470;2023-01-05T03:40:57;96778.05;;;13.87;40.52
47082;BME280;33066;49.296;14.470;2023-01-05T03:43:19;96779.83;;;13.71;40.80
47082;BME280;33066;49.296;14.470;2023-01-05T03:45:46;96776.43;;;13.75;40.88
47082;BME280;33066;49.296;14.470;2023-01-05T03:48:09;96773.39;;;13.79;40.87
47082;BME280;33066;49.296;14.470;2023-01-05T03:50:35;96767.70;;;13.83;40.89
47082;BME280;33066;49.296;14.470;2023-01-05T03:52:59;96768.55;;;14.17;40.79
47082;BME280;33066;49.296;14.470;2023-01-05T03:55:25;96768.05;;;14.18;40.77
47082;BME280;33066;49.296;14.470;2023-01-05T03:57:50;96766.34;;;14.02;41.07
47082;BME280;33066;49.296;14.470;2023-01-05T04:00:16;96766.77;;;14.08;41.07
47082;BME280;33066;49.296;14.470;2023-01-05T04:02:41;96756.10;;;13.81;41.11
47082;BME280;33066;49.296;14.470;2023-01-05T04:05:06;96754.62;;;14.06;41.18
47082;BME280;33066;49.296;14.470;2023-01-05T04:07:31;96745.82;;;13.73;41.33
47082;BME280;33066;49.296;14.470;2023-01-05T04:09:56;96745.49;;;14.04;41.26
47082;BME280;33066;49.296;14.470;2023-01-05T04:13:00;96728.53;;;14.06;40.00
47082;BME280;33066;49.296;14.470;2023-01-05T04:15:25;96730.77;;;14.48;39.96
47082;BME280;33066;49.296;14.470;2023-01-05T04:17:50;96722.33;;;14.24;40.32
47082;BME280;33066;49.296;14.470;2023-01-05T04:20:16;96722.06;;;14.02;40.48
47082;BME280;33066;49.296;14.470;2023-01-05T04:22:41;96722.65;;;13.99;40.90
47082;BME280;33066;49.296;14.470;2023-01-05T04:25:07;96723.34;;;13.96;40.95
47082;BME280;33066;49.296;14.470;2023-01-05T04:27:32;96714.55;;;13.78;40.91
47082;BME280;33066;49.296;14.470;2023-01-05T04:29:57;96706.65;;;14.05;40.90
47082;BME280;33066;49.296;14.470;2023-01-05T04:32:22;96718.28;;;13.97;40.96
47082;BME280;33066;49.296;14.470;2023-01-05T04:34:48;96717.86;;;13.98;40.99
47082;BME280;33066;49.296;14.470;2023-01-05T04:37:13;96712.00;;;13.98;40.93
47082;BME280;33066;49.296;14.470;2023-01-05T04:39:38;96710.78;;;13.92;41.02
47082;BME280;33066;49.296;14.470;2023-01-05T04:42:03;96714.81;;;14.21;40.95
47082;BME280;33066;49.296;14.470;2023-01-05T04:44:29;96705.52;;;13.71;40.96
47082;BME280;33066;49.296;14.470;2023-01-05T04:46:54;96705.50;;;13.84;41.02
47082;BME280;33066;49.296;14.470;2023-01-05T04:49:19;96715.41;;;14.02;41.16
47082;BME280;33066;49.296;14.470;2023-01-05T04:51:44;96713.80;;;13.90;41.11
47082;BME280;33066;49.296;14.470;2023-01-05T04:54:10;96703.94;;;13.85;40.86
47082;BME280;33066;49.296;14.470;2023-01-05T04:56:35;96698.58;;;13.94;40.94
47082;BME280;33066;49.296;14.470;2023-01-05T04:59:00;96704.79;;;14.05;41.13
47082;BME280;33066;49.296;14.470;2023-01-05T05:01:26;96712.75;;;13.75;40.98
47082;BME280;33066;49.296;14.470;2023-01-05T05:03:51;96715.71;;;14.38;40.78
47082;BME280;33066;49.296;14.470;2023-01-05T05:06:16;96712.11;;;13.96;40.78
47082;BME280;33066;49.296;14.470;2023-01-05T05:08:41;96712.42;;;14.16;40.99
47082;BME280;33066;49.296;14.470;2023-01-05T05:11:07;96706.82;;;14.13;41.04
47082;BME280;33066;49.296;14.470;2023-01-05T05:13:32;96717.52;;;13.93;41.09
47082;BME280;33066;49.296;14.470;2023-01-05T05:15:57;96711.35;;;13.74;41.70
47082;BME280;33066;49.296;14.470;2023-01-05T05:18:23;96718.03;;;13.86;42.40
47082;BME280;33066;49.296;14.470;2023-01-05T05:20:50;96710.96;;;13.83;43.01
47082;BME280;33066;49.296;14.470;2023-01-05T05:23:13;96693.25;;;13.85;42.96
47082;BME280;33066;49.296;14.470;2023-01-05T05:25:38;96690.80;;;13.84;43.01
47082;BME280;33066;49.296;14.470;2023-01-05T05:28:04;96691.47;;;13.63;42.79
47082;BME280;33066;49.296;14.470;2023-01-05T05:30:29;96696.88;;;13.61;42.84
47082;BME280;33066;49.296;14.470;2023-01-05T05:32:54;96703.75;;;14.02;42.66
47082;BME280;33066;49.296;14.470;2023-01-05T05:35:20;96705.33;;;13.84;42.92
47082;BME280;33066;49.296;14.470;2023-01-05T05:37:45;96695.93;;;13.98;43.62
47082;BME280;33066;49.296;14.470;2023-01-05T05:40:11;96700.23;;;14.09;43.58
47082;BME280;33066;49.296;14.470;2023-01-05T05:42:35;96701.22;;;14.32;43.60
47082;BME280;33066;49.296;14.470;2023-01-05T05:45:01;96701.01;;;13.85;43.58
47082;BME280;33066;49.296;14.470;2023-01-05T05:47:26;96703.17;;;13.75;43.56
47082;BME280;33066;49.296;14.470;2023-01-05T05:49:51;96702.25;;;14.11;43.37
47082;BME280;33066;49.296;14.470;2023-01-05T05:52:17;96702.91;;;13.90;43.33
47082;BME280;33066;49.296;14.470;2023-01-05T05:54:42;96699.31;;;13.78;43.45
47082;BME280;33066;49.296;14.470;2023-01-05T05:57:07;96710.11;;;13.90;43.43
47082;BME280;33066;49.296;14.470;2023-01-05T05:59:32;96706.03;;;14.15;43.56
47082;BME280;33066;49.296;14.470;2023-01-05T06:01:58;96710.15;;;13.93;43.48
47082;BME280;33066;49.296;14.470;2023-01-05T06:04:23;96715.64;;;14.07;43.35
47082;BME280;33066;49.296;14.470;2023-01-05T06:06:48;96721.10;;;14.15;43.14
47082;BME280;33066;49.296;14.470;2023-01-05T06:09:14;96729.91;;;13.94;43.07
47082;BME280;33066;49.296;14.470;2023-01-05T06:11:39;96732.68;;;14.21;42.95
47082;BME280;33066;49.296;14.470;2023-01-05T06:14:04;96733.65;;;14.12;42.98
47082;BME280;33066;49.296;14.470;2023-01-05T06:16:29;96735.14;;;13.98;43.09
47082;BME280;33066;49.296;14.470;2023-01-05T06:18:55;96739.91;;;13.95;43.56
47082;BME280;33066;49.296;14.470;2023-01-05T06:21:20;96747.80;;;13.62;44.02
47082;BME280;33066;49.296;14.470;2023-01-05T06:23:46;96748.45;;;13.78;44.25
47082;BME280;33066;49.296;14.470;2023-01-05T06:26:11;96751.75;;;12.98;44.16
47082;BME280;33066;49.296;14.470;2023-01-05T06:28:36;96751.46;;;13.88;43.92
47082;BME280;33066;49.296;14.470;2023-01-05T06:31:01;96761.63;;;13.90;44.37
47082;BME280;33066;49.296;14.470;2023-01-05T06:33:27;96766.99;;;13.83;44.62
47082;BME280;33066;49.296;14.470;2023-01-05T06:35:52;96774.94;;;13.97;45.11
47082;BME280;33066;49.296;14.470;2023-01-05T06:38:17;96788.03;;;13.82;45.43
47082;BME280;33066;49.296;14.470;2023-01-05T06:40:45;96790.04;;;13.54;45.67
47082;BME280;33066;49.296;14.470;2023-01-05T06:43:08;96794.01;;;13.49;45.79
47082;BME280;33066;49.296;14.470;2023-01-05T06:45:33;96794.86;;;13.22;47.14
47082;BME280;33066;49.296;14.470;2023-01-05T06:47:58;96822.58;;;13.31;47.83
47082;BME280;33066;49.296;14.470;2023-01-05T06:50:24;96799.23;;;13.13;48.38
47082;BME280;33066;49.296;14.470;2023-01-05T06:52:49;96801.19;;;13.52;48.56
47082;BME280;33066;49.296;14.470;2023-01-05T06:55:14;96801.28;;;13.49;48.56
47082;BME280;33066;49.296;14.470;2023-01-05T06:57:40;96804.52;;;13.42;48.44
47082;BME280;33066;49.296;14.470;2023-01-05T07:00:07;96806.67;;;13.05;48.39
47082;BME280;33066;49.296;14.470;2023-01-05T07:02:30;96810.78;;;13.21;48.64
47082;BME280;33066;49.296;14.470;2023-01-05T07:04:55;96812.50;;;12.99;49.10
47082;BME280;33066;49.296;14.470;2023-01-05T07:07:21;96810.34;;;13.15;48.64
47082;BME280;33066;49.296;14.470;2023-01-05T07:09:46;96815.13;;;13.32;48.90
47082;BME280;33066;49.296;14.470;2023-01-05T07:12:11;96818.64;;;13.43;48.46
47082;BME280;33066;49.296;14.470;2023-01-05T07:14:37;96831.99;;;13.49;48.17
47082;BME280;33066;49.296;14.470;2023-01-05T07:17:02;96834.78;;;13.79;48.11
47082;BME280;33066;49.296;14.470;2023-01-05T07:19:27;96836.18;;;13.75;48.11
47082;BME280;33066;49.296;14.470;2023-01-05T07:21:52;96848.68;;;13.67;48.17
47082;BME280;33066;49.296;14.470;2023-01-05T07:24:18;96837.75;;;13.97;48.25
47082;BME280;33066;49.296;14.470;2023-01-05T07:26:43;96838.39;;;13.99;48.08
47082;BME280;33066;49.296;14.470;2023-01-05T07:29:09;96846.59;;;13.68;46.62
47082;BME280;33066;49.296;14.470;2023-01-05T07:31:34;96850.48;;;13.19;45.70
47082;BME280;33066;49.296;14.470;2023-01-05T07:33:59;96856.45;;;12.94;45.95
47082;BME280;33066;49.296;14.470;2023-01-05T07:36:24;96850.15;;;13.16;46.12
47082;BME280;33066;49.296;14.470;2023-01-05T07:38:51;96858.13;;;12.74;46.50
47082;BME280;33066;49.296;14.470;2023-01-05T07:41:15;96866.22;;;12.68;46.13
47082;BME280;33066;49.296;14.470;2023-01-05T07:43:40;96863.93;;;12.89;45.90
47082;BME280;33066;49.296;14.470;2023-01-05T07:46:07;96864.21;;;13.08;45.27
47082;BME280;33066;49.296;14.470;2023-01-05T07:48:32;96869.39;;;13.23;45.12
47082;BME280;33066;49.296;14.470;2023-01-05T07:50:59;96876.85;;;13.24;44.98
47082;BME280;33066;49.296;14.470;2023-01-05T07:53:22;96876.94;;;13.28;44.63
47082;BME280;33066;49.296;14.470;2023-01-05T07:55:55;96875.86;;;13.22;44.63
47082;BME280;33066;49.296;14.470;2023-01-05T07:58:13;96878.90;;;13.15;43.87
47082;BME280;33066;49.296;14.470;2023-01-05T08:00:38;96888.09;;;13.07;44.15
47082;BME280;33066;49.296;14.470;2023-01-05T08:03:03;96890.20;;;13.09;43.88
47082;BME280;33066;49.296;14.470;2023-01-05T08:05:29;96883.84;;;12.98;43.31
47082;BME280;33066;49.296;14.470;2023-01-05T08:07:54;96889.64;;;13.25;42.96
47082;BME280;33066;49.296;14.470;2023-01-05T08:10:19;96892.79;;;13.24;42.85
47082;BME280;33066;49.296;14.470;2023-01-05T08:12:45;96894.53;;;12.94;42.54
47082;BME280;33066;49.296;14.470;2023-01-05T08:15:10;96903.60;;;13.36;42.06
47082;BME280;33066;49.296;14.470;2023-01-05T08:17:35;96903.64;;;13.02;42.53
47082;BME280;33066;49.296;14.470;2023-01-05T08:20:01;96897.63;;;12.76;42.20
47082;BME280;33066;49.296;14.470;2023-01-05T08:22:26;96897.96;;;13.09;41.62
47082;BME280;33066;49.296;14.470;2023-01-05T08:24:51;96910.37;;;12.72;41.82
47082;BME280;33066;49.296;14.470;2023-01-05T08:27:17;96914.81;;;12.72;41.48
47082;BME280;33066;49.296;14.470;2023-01-05T08:29:42;96917.21;;;12.71;41.68
47082;BME280;33066;49.296;14.470;2023-01-05T08:32:07;96909.36;;;12.87;41.71
47082;BME280;33066;49.296;14.470;2023-01-05T08:34:33;96919.18;;;12.80;41.07
47082;BME280;33066;49.296;14.470;2023-01-05T08:36:58;96929.69;;;12.97;40.97
47082;BME280;33066;49.296;14.470;2023-01-05T08:39:23;96932.04;;;12.84;41.48
47082;BME280;33066;49.296;14.470;2023-01-05T08:41:49;96946.05;;;12.51;41.04
47082;BME280;33066;49.296;14.470;2023-01-05T08:44:14;96950.98;;;12.77;41.64
47082;BME280;33066;49.296;14.470;2023-01-05T08:46:39;96952.75;;;12.59;41.10
47082;BME280;33066;49.296;14.470;2023-01-05T08:49:08;96958.13;;;12.68;41.12
47082;BME280;33066;49.296;14.470;2023-01-05T08:51:31;96958.56;;;12.48;41.23
47082;BME280;33066;49.296;14.470;2023-01-05T08:53:56;96952.10;;;12.83;40.77
47082;BME280;33066;49.296;14.470;2023-01-05T08:56:22;96959.80;;;12.60;40.77
47082;BME280;33066;49.296;14.470;2023-01-05T08:58:46;96960.85;;;12.76;40.70
47082;BME280;33066;49.296;14.470;2023-01-05T09:01:13;96972.34;;;12.88;40.58
47082;BME280;33066;49.296;14.470;2023-01-05T09:03:37;96970.83;;;12.95;40.47
47082;BME280;33066;49.296;14.470;2023-01-05T09:06:02;96976.09;;;13.03;40.59
47082;BME280;33066;49.296;14.470;2023-01-05T09:08:28;96977.71;;;13.05;40.63
47082;BME280;33066;49.296;14.470;2023-01-05T09:10:53;96970.29;;;12.84;40.56
47082;BME280;33066;49.296;14.470;2023-01-05T09:13:18;96969.21;;;12.58;40.41
47082;BME280;33066;49.296;14.470;2023-01-05T09:15:43;96983.80;;;12.86;40.54
47082;BME280;33066;49.296;14.470;2023-01-05T09:18:09;96975.59;;;12.84;40.86
47082;BME280;33066;49.296;14.470;2023-01-05T09:20:34;96990.50;;;13.02;40.74
47082;BME280;33066;49.296;14.470;2023-01-05T09:22:59;96991.51;;;12.86;40.48
47082;BME280;33066;49.296;14.470;2023-01-05T09:25:25;96992.58;;;12.96;40.48
47082;BME280;33066;49.296;14.470;2023-01-05T09:27:50;96995.82;;;13.05;40.55
47082;BME280;33066;49.296;14.470;2023-01-05T09:30:15;97001.29;;;13.15;40.33
47082;BME280;33066;49.296;14.470;2023-01-05T09:32:41;97014.13;;;12.91;40.39
47082;BME280;33066;49.296;14.470;2023-01-05T09:35:07;97010.47;;;12.68;40.33
47082;BME280;33066;49.296;14.470;2023-01-05T09:37:32;97007.07;;;11.73;40.16
47082;BME280;33066;49.296;14.470;2023-01-05T09:39:57;97009.03;;;13.42;39.41
47082;BME280;33066;49.296;14.470;2023-01-05T09:42:23;97001.04;;;13.13;39.85
47082;BME280;33066;49.296;14.470;2023-01-05T09:44:49;97017.25;;;13.06;40.18
47082;BME280;33066;49.296;14.470;2023-01-05T09:47:17;97014.27;;;13.14;40.17
47082;BME280;33066;49.296;14.470;2023-01-05T09:49:39;97017.11;;;13.47;40.02
47082;BME280;33066;49.296;14.470;2023-01-05T09:52:05;97019.34;;;13.03;40.38
47082;BME280;33066;49.296;14.470;2023-01-05T09:54:31;97013.06;;;13.18;40.35
47082;BME280;33066;49.296;14.470;2023-01-05T09:56:55;97011.44;;;13.26;40.15
47082;BME280;33066;49.296;14.470;2023-01-05T09:59:24;97005.54;;;13.36;39.97
47082;BME280;33066;49.296;14.470;2023-01-05T10:01:46;97010.55;;;13.36;40.11
47082;BME280;33066;49.296;14.470;2023-01-05T10:04:14;97007.94;;;13.28;40.00
47082;BME280;33066;49.296;14.470;2023-01-05T10:06:40;97004.56;;;13.52;39.65
47082;BME280;33066;49.296;14.470;2023-01-05T10:09:03;97010.96;;;13.38;39.39
47082;BME280;33066;49.296;14.470;2023-01-05T10:11:32;96991.14;;;13.33;38.92
47082;BME280;33066;49.296;14.470;2023-01-05T10:13:56;97000.63;;;13.28;39.37
47082;BME280;33066;49.296;14.470;2023-01-05T10:16:17;97001.48;;;13.46;39.63
47082;BME280;33066;49.296;14.470;2023-01-05T10:18:42;97006.71;;;13.56;39.23
47082;BME280;33066;49.296;14.470;2023-01-05T10:21:14;97002.35;;;13.58;39.14
47082;BME280;33066;49.296;14.470;2023-01-05T10:23:47;96997.56;;;13.55;39.24
47082;BME280;33066;49.296;14.470;2023-01-05T10:26:06;97003.13;;;13.85;38.98
47082;BME280;33066;49.296;14.470;2023-01-05T10:28:33;97009.45;;;13.48;39.15
47082;BME280;33066;49.296;14.470;2023-01-05T10:30:56;97008.22;;;13.61;39.06
47082;BME280;33066;49.296;14.470;2023-01-05T10:33:23;97010.56;;;13.74;39.33
47082;BME280;33066;49.296;14.470;2023-01-05T10:35:51;97009.09;;;14.04;39.24
47082;BME280;33066;49.296;14.470;2023-01-05T10:38:15;97008.99;;;13.93;38.97
47082;BME280;33066;49.296;14.470;2023-01-05T10:40:42;97011.69;;;14.02;38.90
47082;BME280;33066;49.296;14.470;2023-01-05T10:43:13;97006.24;;;13.77;38.92
47082;BME280;33066;49.296;14.470;2023-01-05T10:45:26;97001.44;;;14.00;39.04
47082;BME280;33066;49.296;14.470;2023-01-05T10:47:49;97006.13;;;13.80;39.22
47082;BME280;33066;49.296;14.470;2023-01-05T10:50:26;97000.11;;;14.03;38.80
47082;BME280;33066;49.296;14.470;2023-01-05T10:52:39;97000.07;;;13.97;38.93
47082;BME280;33066;49.296;14.470;2023-01-05T10:55:13;97006.88;;;13.95;38.89
47082;BME280;33066;49.296;14.470;2023-01-05T10:57:33;97001.53;;;13.65;38.92
47082;BME280;33066;49.296;14.470;2023-01-05T10:59:57;96998.28;;;13.54;39.39
47082;BME280;33066;49.296;14.470;2023-01-05T11:02:22;96993.77;;;13.57;39.14
47082;BME280;33066;49.296;14.470;2023-01-05T11:04:47;96996.57;;;13.53;39.17
47082;BME280;33066;49.296;14.470;2023-01-05T11:07:12;96997.61;;;13.42;39.06
47082;BME280;33066;49.296;14.470;2023-01-05T11:09:39;96993.72;;;13.47;39.18
47082;BME280;33066;49.296;14.470;2023-01-05T11:12:03;97000.93;;;13.64;39.30
47082;BME280;33066;49.296;14.470;2023-01-05T11:14:29;96990.78;;;13.22;39.28
47082;BME280;33066;49.296;14.470;2023-01-05T11:16:59;96997.26;;;13.43;39.18
47082;BME280;33066;49.296;14.470;2023-01-05T11:19:23;97001.67;;;13.45;39.10
47082;BME280;33066;49.296;14.470;2023-01-05T11:21:45;97013.23;;;13.43;38.80
47082;BME280;33066;49.296;14.470;2023-01-05T11:26:36;97007.03;;;13.50;38.74
47082;BME280;33066;49.296;14.470;2023-01-05T11:29:04;97004.99;;;13.51;38.53
47082;BME280;33066;49.296;14.470;2023-01-05T11:31:26;97004.30;;;13.70;38.56
47082;BME280;33066;49.296;14.470;2023-01-05T11:33:54;97010.85;;;14.02;38.10
47082;BME280;33066;49.296;14.470;2023-01-05T11:36:17;97015.02;;;14.17;37.86
47082;BME280;33066;49.296;14.470;2023-01-05T11:38:42;97006.97;;;14.34;37.50
47082;BME280;33066;49.296;14.470;2023-01-05T11:41:10;97006.78;;;14.09;37.41
47082;BME280;33066;49.296;14.470;2023-01-05T11:43:33;97012.06;;;14.61;37.09
47082;BME280;33066;49.296;14.470;2023-01-05T11:46:00;97003.40;;;14.64;37.20
47082;BME280;33066;49.296;14.470;2023-01-05T11:48:26;97002.87;;;14.49;37.22
47082;BME280;33066;49.296;14.470;2023-01-05T11:50:50;97006.57;;;14.40;37.49
47082;BME280;33066;49.296;14.470;2023-01-05T11:53:24;97007.85;;;14.31;38.00
47082;BME280;33066;49.296;14.470;2023-01-05T11:55:39;97005.79;;;14.64;37.99
47082;BME280;33066;49.296;14.470;2023-01-05T11:58:14;97010.50;;;14.52;38.09
47082;BME280;33066;49.296;14.470;2023-01-05T12:00:33;96992.88;;;14.78;38.11
47082;BME280;33066;49.296;14.470;2023-01-05T12:03:03;97011.46;;;14.52;37.71
47082;BME280;33066;49.296;14.470;2023-01-05T12:05:24;97002.25;;;14.15;38.81
47082;BME280;33066;49.296;14.470;2023-01-05T12:07:50;96998.35;;;14.56;39.26
47082;BME280;33066;49.296;14.470;2023-01-05T12:10:29;97005.33;;;14.57;39.47
47082;BME280;33066;49.296;14.470;2023-01-05T12:12:45;97004.42;;;14.64;38.89
47082;BME280;33066;49.296;14.470;2023-01-05T12:17:32;97007.42;;;14.96;38.47
47082;BME280;33066;49.296;14.470;2023-01-05T12:20:02;96994.55;;;14.60;37.86
47082;BME280;33066;49.296;14.470;2023-01-05T12:22:37;97008.51;;;14.81;37.65
47082;BME280;33066;49.296;14.470;2023-01-05T12:24:53;97002.89;;;14.46;37.67
47082;BME280;33066;49.296;14.470;2023-01-05T12:27:18;97012.66;;;14.68;37.64
47082;BME280;33066;49.296;14.470;2023-01-05T12:29:46;97006.14;;;14.49;37.90
47082;BME280;33066;49.296;14.470;2023-01-05T12:32:10;97014.75;;;14.30;37.43
47082;BME280;33066;49.296;14.470;2023-01-05T12:34:41;97017.52;;;14.32;37.10
47082;BME280;33066;49.296;14.470;2023-01-05T12:37:02;97010.07;;;14.11;37.37
47082;BME280;33066;49.296;14.470;2023-01-05T12:41:50;97014.24;;;15.44;35.99
47082;BME280;33066;49.296;14.470;2023-01-05T12:44:22;97008.61;;;16.84;34.14
47082;BME280;33066;49.296;14.470;2023-01-05T12:46:42;97036.18;;;15.16;36.32
47082;BME280;33066;49.296;14.470;2023-01-05T12:49:03;97020.69;;;15.18;36.54